sensor_id;sensor_type;location;lat;lon;timestamp;P1;durP1;ratioP1;P2;durP2;ratioP2
37221;SDS011;23119;51.842;-2.230;2022-09-24T00:01:38;1.38;;;0.30;;
37221;SDS011;23119;51.842;-2.230;2022-09-24T00:04:05;3.35;;;0.50;;
37221;SDS011;23119;51.842;-2.230;2022-09-24T00:06:34;2.00;;;0.40;;
37221;SDS011;23119;51.842;-2.230;2022-09-24T00:09:05;3.47;;;0.30;;
37221;SDS011;23119;51.842;-2.230;2022-09-24T00:11:31;3.80;;;0.30;;
37221;SDS011;23119;51.842;-2.230;2022-09-24T00:13:57;2.38;;;0.30;;
37221;SDS011;23119;51.842;-2.230;2022-09-24T00:16:24;2.22;;;0.50;;
37221;SDS011;23119;51.842;-2.230;2022-09-24T00:18:55;3.50;;;0.35;;
37221;SDS011;23119;51.842;-2.230;2022-09-24T00:21:24;1.33;;;0.35;;
37221;SDS011;23119;51.842;-2.230;2022-09-24T00:23:56;2.22;;;0.30;;
37221;SDS011;23119;51.842;-2.230;2022-09-24T00:26:27;1.58;;;0.30;;
37221;SDS011;23119;51.842;-2.230;2022-09-24T00:29:12;5.25;;;0.30;;
37221;SDS011;23119;51.842;-2.230;2022-09-24T00:31:40;4.75;;;0.32;;
37221;SDS011;23119;51.842;-2.230;2022-09-24T00:34:06;1.50;;;0.20;;
37221;SDS011;23119;51.842;-2.230;2022-09-24T00:36:32;2.60;;;0.30;;
37221;SDS011;23119;51.842;-2.230;2022-09-24T00:38:59;1.20;;;0.30;;
37221;SDS011;23119;51.842;-2.230;2022-09-24T00:41:29;2.28;;;0.40;;
37221;SDS011;23119;51.842;-2.230;2022-09-24T00:43:58;2.40;;;0.30;;
37221;SDS011;23119;51.842;-2.230;2022-09-24T00:46:44;1.65;;;0.30;;
37221;SDS011;23119;51.842;-2.230;2022-09-24T00:49:14;4.75;;;0.47;;
37221;SDS011;23119;51.842;-2.230;2022-09-24T00:51:43;4.88;;;0.45;;
37221;SDS011;23119;51.842;-2.230;2022-09-24T00:54:12;3.00;;;0.20;;
37221;SDS011;23119;51.842;-2.230;2022-09-24T00:56:52;2.97;;;0.85;;
37221;SDS011;23119;51.842;-2.230;2022-09-24T00:59:20;3.28;;;0.38;;
37221;SDS011;23119;51.842;-2.230;2022-09-24T01:01:48;5.20;;;0.40;;
37221;SDS011;23119;51.842;-2.230;2022-09-24T01:04:15;2.72;;;0.50;;
37221;SDS011;23119;51.842;-2.230;2022-09-24T01:06:46;6.20;;;0.85;;
37221;SDS011;23119;51.842;-2.230;2022-09-24T01:09:13;2.20;;;0.45;;
37221;SDS011;23119;51.842;-2.230;2022-09-24T01:23:30;4.15;;;0.80;;
37221;SDS011;23119;51.842;-2.230;2022-09-24T01:31:27;6.53;;;0.50;;
37221;SDS011;23119;51.842;-2.230;2022-09-24T01:34:00;3.80;;;0.50;;
37221;SDS011;23119;51.842;-2.230;2022-09-24T01:36:30;2.88;;;0.80;;
37221;SDS011;23119;51.842;-2.230;2022-09-24T01:38:58;4.28;;;0.82;;
37221;SDS011;23119;51.842;-2.230;2022-09-24T01:41:26;3.80;;;0.40;;
37221;SDS011;23119;51.842;-2.230;2022-09-24T01:43:57;2.15;;;0.22;;
37221;SDS011;23119;51.842;-2.230;2022-09-24T01:46:27;2.33;;;0.40;;
37221;SDS011;23119;51.842;-2.230;2022-09-24T01:48:53;1.70;;;0.40;;
37221;SDS011;23119;51.842;-2.230;2022-09-24T01:51:21;4.70;;;0.40;;
37221;SDS011;23119;51.842;-2.230;2022-09-24T01:53:56;3.92;;;0.57;;
37221;SDS011;23119;51.842;-2.230;2022-09-24T01:56:36;3.70;;;0.60;;
37221;SDS011;23119;51.842;-2.230;2022-09-24T02:04:24;1.10;;;0.50;;
37221;SDS011;23119;51.842;-2.230;2022-09-24T02:06:55;2.60;;;0.50;;
37221;SDS011;23119;51.842;-2.230;2022-09-24T02:09:39;2.55;;;0.60;;
37221;SDS011;23119;51.842;-2.230;2022-09-24T02:12:27;1.67;;;0.60;;
37221;SDS011;23119;51.842;-2.230;2022-09-24T02:15:06;4.03;;;0.70;;
37221;SDS011;23119;51.842;-2.230;2022-09-24T02:17:45;4.43;;;0.50;;
37221;SDS011;23119;51.842;-2.230;2022-09-24T02:20:17;4.88;;;0.60;;
37221;SDS011;23119;51.842;-2.230;2022-09-24T02:22:46;4.75;;;0.60;;
37221;SDS011;23119;51.842;-2.230;2022-09-24T02:25:16;5.55;;;0.70;;
37221;SDS011;23119;51.842;-2.230;2022-09-24T02:30:21;8.75;;;0.80;;
37221;SDS011;23119;51.842;-2.230;2022-09-24T02:32:47;3.17;;;0.73;;
37221;SDS011;23119;51.842;-2.230;2022-09-24T02:35:22;4.15;;;0.68;;
37221;SDS011;23119;51.842;-2.230;2022-09-24T02:37:48;2.08;;;0.80;;
37221;SDS011;23119;51.842;-2.230;2022-09-24T02:40:14;2.42;;;0.55;;
37221;SDS011;23119;51.842;-2.230;2022-09-24T02:42:40;4.53;;;0.60;;
37221;SDS011;23119;51.842;-2.230;2022-09-24T02:45:09;4.68;;;0.70;;
37221;SDS011;23119;51.842;-2.230;2022-09-24T02:47:36;5.18;;;0.85;;
37221;SDS011;23119;51.842;-2.230;2022-09-24T02:50:02;5.28;;;0.55;;
37221;SDS011;23119;51.842;-2.230;2022-09-24T02:52:30;4.53;;;0.65;;
37221;SDS011;23119;51.842;-2.230;2022-09-24T02:54:55;4.78;;;0.60;;
37221;SDS011;23119;51.842;-2.230;2022-09-24T02:57:21;6.80;;;0.70;;
37221;SDS011;23119;51.842;-2.230;2022-09-24T02:59:47;4.05;;;0.90;;
37221;SDS011;23119;51.842;-2.230;2022-09-24T03:02:12;1.73;;;0.40;;
37221;SDS011;23119;51.842;-2.230;2022-09-24T03:04:39;3.15;;;0.50;;
37221;SDS011;23119;51.842;-2.230;2022-09-24T03:07:04;3.25;;;0.70;;
37221;SDS011;23119;51.842;-2.230;2022-09-24T03:09:30;3.60;;;0.50;;
37221;SDS011;23119;51.842;-2.230;2022-09-24T03:11:56;2.17;;;0.40;;
37221;SDS011;23119;51.842;-2.230;2022-09-24T03:14:25;3.58;;;0.70;;
37221;SDS011;23119;51.842;-2.230;2022-09-24T03:16:51;4.10;;;0.90;;
37221;SDS011;23119;51.842;-2.230;2022-09-24T03:19:16;1.92;;;0.30;;
37221;SDS011;23119;51.842;-2.230;2022-09-24T03:21:42;3.20;;;0.77;;
37221;SDS011;23119;51.842;-2.230;2022-09-24T03:24:08;5.60;;;0.55;;
37221;SDS011;23119;51.842;-2.230;2022-09-24T03:26:34;2.38;;;0.40;;
37221;SDS011;23119;51.842;-2.230;2022-09-24T03:29:02;3.58;;;0.40;;
37221;SDS011;23119;51.842;-2.230;2022-09-24T03:31:28;7.22;;;0.50;;
37221;SDS011;23119;51.842;-2.230;2022-09-24T03:33:54;2.83;;;0.60;;
37221;SDS011;23119;51.842;-2.230;2022-09-24T03:36:23;3.97;;;0.70;;
37221;SDS011;23119;51.842;-2.230;2022-09-24T03:38:53;2.83;;;0.80;;
37221;SDS011;23119;51.842;-2.230;2022-09-24T03:41:20;1.88;;;0.40;;
37221;SDS011;23119;51.842;-2.230;2022-09-24T03:43:50;3.75;;;0.55;;
37221;SDS011;23119;51.842;-2.230;2022-09-24T03:46:16;4.18;;;0.50;;
37221;SDS011;23119;51.842;-2.230;2022-09-24T03:48:43;3.13;;;0.45;;
37221;SDS011;23119;51.842;-2.230;2022-09-24T03:51:14;3.70;;;0.43;;
37221;SDS011;23119;51.842;-2.230;2022-09-24T03:53:42;4.60;;;0.47;;
37221;SDS011;23119;51.842;-2.230;2022-09-24T03:56:09;2.70;;;0.40;;
37221;SDS011;23119;51.842;-2.230;2022-09-24T03:58:36;2.22;;;0.60;;
37221;SDS011;23119;51.842;-2.230;2022-09-24T04:01:03;4.20;;;0.40;;
37221;SDS011;23119;51.842;-2.230;2022-09-24T04:03:32;1.98;;;0.40;;
37221;SDS011;23119;51.842;-2.230;2022-09-24T04:05:58;4.45;;;0.47;;
37221;SDS011;23119;51.842;-2.230;2022-09-24T04:08:24;3.85;;;0.50;;
37221;SDS011;23119;51.842;-2.230;2022-09-24T04:10:50;5.93;;;0.77;;
37221;SDS011;23119;51.842;-2.230;2022-09-24T04:13:18;4.97;;;0.52;;
37221;SDS011;23119;51.842;-2.230;2022-09-24T04:15:46;2.55;;;0.50;;
37221;SDS011;23119;51.842;-2.230;2022-09-24T04:18:14;2.47;;;0.40;;
37221;SDS011;23119;51.842;-2.230;2022-09-24T04:20:40;4.95;;;0.40;;
37221;SDS011;23119;51.842;-2.230;2022-09-24T04:23:08;2.00;;;0.40;;
37221;SDS011;23119;51.842;-2.230;2022-09-24T04:25:34;4.95;;;0.40;;
37221;SDS011;23119;51.842;-2.230;2022-09-24T04:28:02;1.33;;;0.40;;
37221;SDS011;23119;51.842;-2.230;2022-09-24T04:30:32;3.53;;;0.93;;
37221;SDS011;23119;51.842;-2.230;2022-09-24T04:32:59;3.05;;;0.55;;
37221;SDS011;23119;51.842;-2.230;2022-09-24T04:35:27;2.83;;;0.47;;
37221;SDS011;23119;51.842;-2.230;2022-09-24T04:37:54;2.80;;;0.50;;
37221;SDS011;23119;51.842;-2.230;2022-09-24T04:40:23;2.05;;;0.45;;
37221;SDS011;23119;51.842;-2.230;2022-09-24T04:42:49;5.97;;;0.50;;
37221;SDS011;23119;51.842;-2.230;2022-09-24T04:45:15;3.60;;;0.40;;
37221;SDS011;23119;51.842;-2.230;2022-09-24T04:47:43;2.70;;;0.52;;
37221;SDS011;23119;51.842;-2.230;2022-09-24T04:50:10;3.10;;;0.73;;
37221;SDS011;23119;51.842;-2.230;2022-09-24T04:52:36;4.57;;;0.63;;
37221;SDS011;23119;51.842;-2.230;2022-09-24T04:55:03;3.75;;;0.52;;
37221;SDS011;23119;51.842;-2.230;2022-09-24T04:57:29;3.75;;;0.50;;
37221;SDS011;23119;51.842;-2.230;2022-09-24T05:00:01;4.00;;;0.65;;
37221;SDS011;23119;51.842;-2.230;2022-09-24T05:02:28;2.65;;;0.35;;
37221;SDS011;23119;51.842;-2.230;2022-09-24T05:04:54;5.15;;;0.40;;
37221;SDS011;23119;51.842;-2.230;2022-09-24T05:07:20;4.70;;;0.40;;
37221;SDS011;23119;51.842;-2.230;2022-09-24T05:09:48;5.70;;;1.15;;
37221;SDS011;23119;51.842;-2.230;2022-09-24T05:12:14;3.72;;;0.40;;
37221;SDS011;23119;51.842;-2.230;2022-09-24T05:14:39;4.20;;;0.50;;
37221;SDS011;23119;51.842;-2.230;2022-09-24T05:17:05;2.08;;;0.40;;
37221;SDS011;23119;51.842;-2.230;2022-09-24T05:19:33;2.90;;;0.57;;
37221;SDS011;23119;51.842;-2.230;2022-09-24T05:22:01;1.63;;;0.40;;
37221;SDS011;23119;51.842;-2.230;2022-09-24T05:24:30;4.22;;;0.50;;
37221;SDS011;23119;51.842;-2.230;2022-09-24T05:26:55;2.90;;;0.55;;
37221;SDS011;23119;51.842;-2.230;2022-09-24T05:29:40;2.45;;;0.52;;
37221;SDS011;23119;51.842;-2.230;2022-09-24T05:32:11;2.97;;;0.55;;
37221;SDS011;23119;51.842;-2.230;2022-09-24T05:37:09;2.03;;;0.30;;
37221;SDS011;23119;51.842;-2.230;2022-09-24T05:39:35;3.40;;;0.60;;
37221;SDS011;23119;51.842;-2.230;2022-09-24T05:42:01;5.13;;;0.55;;
37221;SDS011;23119;51.842;-2.230;2022-09-24T05:44:30;1.70;;;0.38;;
37221;SDS011;23119;51.842;-2.230;2022-09-24T05:46:56;5.88;;;0.63;;
37221;SDS011;23119;51.842;-2.230;2022-09-24T05:49:25;0.90;;;0.40;;
37221;SDS011;23119;51.842;-2.230;2022-09-24T05:51:50;6.35;;;0.60;;
37221;SDS011;23119;51.842;-2.230;2022-09-24T05:54:16;4.70;;;0.57;;
37221;SDS011;23119;51.842;-2.230;2022-09-24T05:56:48;4.65;;;0.50;;
37221;SDS011;23119;51.842;-2.230;2022-09-24T05:59:14;3.78;;;0.50;;
37221;SDS011;23119;51.842;-2.230;2022-09-24T06:01:40;7.22;;;0.63;;
37221;SDS011;23119;51.842;-2.230;2022-09-24T06:04:06;2.45;;;0.40;;
37221;SDS011;23119;51.842;-2.230;2022-09-24T06:06:38;3.80;;;0.40;;
37221;SDS011;23119;51.842;-2.230;2022-09-24T06:09:04;2.38;;;0.40;;
37221;SDS011;23119;51.842;-2.230;2022-09-24T06:11:30;3.40;;;0.50;;
37221;SDS011;23119;51.842;-2.230;2022-09-24T06:14:00;7.07;;;0.40;;
37221;SDS011;23119;51.842;-2.230;2022-09-24T06:16:31;8.27;;;0.88;;
37221;SDS011;23119;51.842;-2.230;2022-09-24T06:18:59;4.70;;;0.43;;
37221;SDS011;23119;51.842;-2.230;2022-09-24T06:21:25;4.40;;;0.95;;
37221;SDS011;23119;51.842;-2.230;2022-09-24T06:23:56;5.57;;;0.40;;
37221;SDS011;23119;51.842;-2.230;2022-09-24T06:26:24;2.65;;;0.38;;
37221;SDS011;23119;51.842;-2.230;2022-09-24T06:28:51;3.97;;;0.40;;
37221;SDS011;23119;51.842;-2.230;2022-09-24T06:31:19;2.28;;;0.50;;
37221;SDS011;23119;51.842;-2.230;2022-09-24T06:33:45;2.00;;;0.30;;
37221;SDS011;23119;51.842;-2.230;2022-09-24T06:36:11;6.43;;;0.75;;
37221;SDS011;23119;51.842;-2.230;2022-09-24T06:38:37;4.63;;;0.40;;
37221;SDS011;23119;51.842;-2.230;2022-09-24T06:41:06;2.08;;;0.47;;
37221;SDS011;23119;51.842;-2.230;2022-09-24T06:43:32;5.40;;;0.55;;
37221;SDS011;23119;51.842;-2.230;2022-09-24T06:46:01;4.47;;;0.60;;
37221;SDS011;23119;51.842;-2.230;2022-09-24T06:48:30;4.13;;;0.50;;
37221;SDS011;23119;51.842;-2.230;2022-09-24T06:50:56;4.00;;;0.60;;
37221;SDS011;23119;51.842;-2.230;2022-09-24T06:53:22;2.67;;;0.50;;
37221;SDS011;23119;51.842;-2.230;2022-09-24T06:55:48;2.22;;;0.40;;
37221;SDS011;23119;51.842;-2.230;2022-09-24T06:58:14;6.78;;;0.52;;
37221;SDS011;23119;51.842;-2.230;2022-09-24T07:00:54;4.45;;;0.40;;
37221;SDS011;23119;51.842;-2.230;2022-09-24T07:03:27;2.83;;;0.50;;
37221;SDS011;23119;51.842;-2.230;2022-09-24T07:06:03;3.55;;;0.50;;
37221;SDS011;23119;51.842;-2.230;2022-09-24T07:08:32;3.70;;;0.60;;
37221;SDS011;23119;51.842;-2.230;2022-09-24T07:11:01;3.85;;;0.52;;
37221;SDS011;23119;51.842;-2.230;2022-09-24T07:13:26;5.60;;;0.70;;
37221;SDS011;23119;51.842;-2.230;2022-09-24T07:15:55;3.35;;;0.50;;
37221;SDS011;23119;51.842;-2.230;2022-09-24T07:18:25;4.35;;;0.50;;
37221;SDS011;23119;51.842;-2.230;2022-09-24T07:20:55;2.70;;;0.40;;
37221;SDS011;23119;51.842;-2.230;2022-09-24T07:23:21;2.00;;;0.40;;
37221;SDS011;23119;51.842;-2.230;2022-09-24T07:25:47;1.23;;;0.30;;
37221;SDS011;23119;51.842;-2.230;2022-09-24T07:28:23;2.95;;;0.50;;
37221;SDS011;23119;51.842;-2.230;2022-09-24T07:30:55;1.75;;;0.50;;
37221;SDS011;23119;51.842;-2.230;2022-09-24T07:33:22;3.80;;;0.50;;
37221;SDS011;23119;51.842;-2.230;2022-09-24T07:35:48;6.70;;;0.60;;
37221;SDS011;23119;51.842;-2.230;2022-09-24T07:38:16;2.88;;;0.50;;
37221;SDS011;23119;51.842;-2.230;2022-09-24T07:40:42;2.85;;;0.40;;
37221;SDS011;23119;51.842;-2.230;2022-09-24T07:43:08;2.88;;;0.40;;
37221;SDS011;23119;51.842;-2.230;2022-09-24T07:45:37;2.95;;;0.40;;
37221;SDS011;23119;51.842;-2.230;2022-09-24T07:48:04;2.92;;;0.50;;
37221;SDS011;23119;51.842;-2.230;2022-09-24T07:50:38;3.75;;;0.40;;
37221;SDS011;23119;51.842;-2.230;2022-09-24T07:53:11;4.40;;;0.35;;
37221;SDS011;23119;51.842;-2.230;2022-09-24T07:55:43;3.70;;;0.50;;
37221;SDS011;23119;51.842;-2.230;2022-09-24T07:58:12;2.78;;;0.40;;
37221;SDS011;23119;51.842;-2.230;2022-09-24T08:00:48;3.03;;;0.40;;
37221;SDS011;23119;51.842;-2.230;2022-09-24T08:03:22;2.85;;;0.50;;
37221;SDS011;23119;51.842;-2.230;2022-09-24T08:05:49;2.05;;;0.43;;
37221;SDS011;23119;51.842;-2.230;2022-09-24T08:08:15;4.65;;;0.60;;
37221;SDS011;23119;51.842;-2.230;2022-09-24T08:10:44;3.00;;;0.40;;
37221;SDS011;23119;51.842;-2.230;2022-09-24T08:13:13;2.22;;;0.50;;
37221;SDS011;23119;51.842;-2.230;2022-09-24T08:15:40;2.83;;;0.40;;
37221;SDS011;23119;51.842;-2.230;2022-09-24T08:18:06;3.35;;;0.38;;
37221;SDS011;23119;51.842;-2.230;2022-09-24T08:20:34;5.00;;;0.50;;
37221;SDS011;23119;51.842;-2.230;2022-09-24T08:23:24;3.85;;;0.50;;
37221;SDS011;23119;51.842;-2.230;2022-09-24T08:25:53;2.30;;;0.50;;
37221;SDS011;23119;51.842;-2.230;2022-09-24T08:30:50;3.90;;;0.40;;
37221;SDS011;23119;51.842;-2.230;2022-09-24T08:33:16;3.22;;;0.65;;
37221;SDS011;23119;51.842;-2.230;2022-09-24T08:35:42;5.40;;;0.70;;
37221;SDS011;23119;51.842;-2.230;2022-09-24T08:38:07;3.85;;;0.50;;
37221;SDS011;23119;51.842;-2.230;2022-09-24T08:40:37;5.95;;;0.75;;
37221;SDS011;23119;51.842;-2.230;2022-09-24T08:45:50;5.45;;;0.52;;
37221;SDS011;23119;51.842;-2.230;2022-09-24T08:48:58;1.90;;;0.30;;
37221;SDS011;23119;51.842;-2.230;2022-09-24T08:51:24;2.78;;;0.40;;
37221;SDS011;23119;51.842;-2.230;2022-09-24T08:54:05;2.67;;;0.40;;
37221;SDS011;23119;51.842;-2.230;2022-09-24T08:56:34;1.45;;;0.30;;
37221;SDS011;23119;51.842;-2.230;2022-09-24T09:07:54;4.05;;;0.32;;
37221;SDS011;23119;51.842;-2.230;2022-09-24T09:10:48;2.55;;;0.32;;
37221;SDS011;23119;51.842;-2.230;2022-09-24T09:13:22;4.25;;;0.50;;
37221;SDS011;23119;51.842;-2.230;2022-09-24T09:16:00;1.77;;;0.40;;
37221;SDS011;23119;51.842;-2.230;2022-09-24T09:18:45;1.85;;;0.40;;
37221;SDS011;23119;51.842;-2.230;2022-09-24T09:21:23;2.60;;;0.38;;
37221;SDS011;23119;51.842;-2.230;2022-09-24T09:23:59;2.88;;;0.22;;
37221;SDS011;23119;51.842;-2.230;2022-09-24T09:26:27;2.28;;;0.30;;
37221;SDS011;23119;51.842;-2.230;2022-09-24T09:28:55;3.00;;;0.20;;
37221;SDS011;23119;51.842;-2.230;2022-09-24T09:42:07;2.28;;;0.25;;
37221;SDS011;23119;51.842;-2.230;2022-09-24T09:44:37;2.72;;;0.38;;
37221;SDS011;23119;51.842;-2.230;2022-09-24T09:47:11;2.55;;;0.17;;
37221;SDS011;23119;51.842;-2.230;2022-09-24T09:49:40;1.27;;;0.20;;
37221;SDS011;23119;51.842;-2.230;2022-09-24T09:52:12;0.88;;;0.20;;
37221;SDS011;23119;51.842;-2.230;2022-09-24T09:54:45;2.03;;;0.30;;
37221;SDS011;23119;51.842;-2.230;2022-09-24T09:57:19;1.65;;;0.22;;
37221;SDS011;23119;51.842;-2.230;2022-09-24T09:59:48;2.08;;;0.20;;
37221;SDS011;23119;51.842;-2.230;2022-09-24T10:02:26;3.00;;;0.32;;
37221;SDS011;23119;51.842;-2.230;2022-09-24T10:04:58;3.28;;;0.20;;
37221;SDS011;23119;51.842;-2.230;2022-09-24T10:07:29;0.90;;;0.20;;
37221;SDS011;23119;51.842;-2.230;2022-09-24T10:10:00;1.08;;;0.20;;
37221;SDS011;23119;51.842;-2.230;2022-09-24T10:12:28;1.60;;;0.20;;
37221;SDS011;23119;51.842;-2.230;2022-09-24T10:15:11;2.45;;;0.10;;
37221;SDS011;23119;51.842;-2.230;2022-09-24T10:17:43;1.30;;;0.20;;
37221;SDS011;23119;51.842;-2.230;2022-09-24T10:20:16;2.35;;;0.20;;
37221;SDS011;23119;51.842;-2.230;2022-09-24T10:22:55;2.10;;;0.30;;
37221;SDS011;23119;51.842;-2.230;2022-09-24T10:25:26;4.88;;;0.30;;
37221;SDS011;23119;51.842;-2.230;2022-09-24T10:27:54;2.83;;;0.30;;
37221;SDS011;23119;51.842;-2.230;2022-09-24T10:30:59;3.33;;;0.10;;
37221;SDS011;23119;51.842;-2.230;2022-09-24T10:33:42;2.35;;;0.20;;
37221;SDS011;23119;51.842;-2.230;2022-09-24T10:36:15;3.90;;;0.20;;
37221;SDS011;23119;51.842;-2.230;2022-09-24T10:38:44;2.75;;;0.20;;
37221;SDS011;23119;51.842;-2.230;2022-09-24T10:41:29;1.20;;;0.20;;
37221;SDS011;23119;51.842;-2.230;2022-09-24T10:43:56;1.98;;;0.20;;
37221;SDS011;23119;51.842;-2.230;2022-09-24T10:49:37;0.98;;;0.10;;
37221;SDS011;23119;51.842;-2.230;2022-09-24T11:01:05;2.67;;;0.20;;
37221;SDS011;23119;51.842;-2.230;2022-09-24T11:18:26;2.40;;;0.20;;
37221;SDS011;23119;51.842;-2.230;2022-09-24T11:29:36;2.33;;;0.20;;
37221;SDS011;23119;51.842;-2.230;2022-09-24T11:32:28;2.88;;;0.20;;
37221;SDS011;23119;51.842;-2.230;2022-09-24T11:40:18;0.82;;;0.20;;
37221;SDS011;23119;51.842;-2.230;2022-09-24T11:51:21;2.30;;;0.20;;
37221;SDS011;23119;51.842;-2.230;2022-09-24T11:54:14;4.25;;;0.30;;
37221;SDS011;23119;51.842;-2.230;2022-09-24T11:57:21;3.53;;;0.20;;
37221;SDS011;23119;51.842;-2.230;2022-09-24T11:59:56;2.15;;;0.20;;
37221;SDS011;23119;51.842;-2.230;2022-09-24T12:05:35;3.13;;;0.20;;
37221;SDS011;23119;51.842;-2.230;2022-09-24T12:08:08;0.80;;;0.13;;
37221;SDS011;23119;51.842;-2.230;2022-09-24T12:10:46;1.10;;;0.10;;
37221;SDS011;23119;51.842;-2.230;2022-09-24T12:13:20;1.52;;;0.20;;
37221;SDS011;23119;51.842;-2.230;2022-09-24T12:16:09;1.38;;;0.20;;
37221;SDS011;23119;51.842;-2.230;2022-09-24T12:18:41;2.10;;;0.30;;
37221;SDS011;23119;51.842;-2.230;2022-09-24T12:21:16;1.58;;;0.20;;
37221;SDS011;23119;51.842;-2.230;2022-09-24T12:23:45;2.63;;;0.10;;
37221;SDS011;23119;51.842;-2.230;2022-09-24T12:26:12;1.33;;;0.20;;
37221;SDS011;23119;51.842;-2.230;2022-09-24T12:28:55;3.55;;;0.30;;
37221;SDS011;23119;51.842;-2.230;2022-09-24T12:32:01;1.75;;;0.17;;
37221;SDS011;23119;51.842;-2.230;2022-09-24T12:37:47;1.92;;;0.20;;
37221;SDS011;23119;51.842;-2.230;2022-09-24T12:43:12;3.42;;;0.20;;
37221;SDS011;23119;51.842;-2.230;2022-09-24T12:45:58;1.30;;;0.20;;
37221;SDS011;23119;51.842;-2.230;2022-09-24T12:48:29;2.92;;;0.20;;
37221;SDS011;23119;51.842;-2.230;2022-09-24T12:50:59;1.05;;;0.10;;
37221;SDS011;23119;51.842;-2.230;2022-09-24T12:53:32;1.30;;;0.10;;
37221;SDS011;23119;51.842;-2.230;2022-09-24T12:56:05;2.72;;;0.10;;
37221;SDS011;23119;51.842;-2.230;2022-09-24T12:58:43;4.15;;;0.40;;
37221;SDS011;23119;51.842;-2.230;2022-09-24T13:01:24;0.73;;;0.10;;
37221;SDS011;23119;51.842;-2.230;2022-09-24T13:06:43;2.58;;;0.17;;
37221;SDS011;23119;51.842;-2.230;2022-09-24T13:14:45;1.50;;;0.32;;
37221;SDS011;23119;51.842;-2.230;2022-09-24T13:17:14;3.80;;;0.20;;
37221;SDS011;23119;51.842;-2.230;2022-09-24T13:19:42;2.15;;;0.20;;
37221;SDS011;23119;51.842;-2.230;2022-09-24T13:27:40;0.65;;;0.10;;
37221;SDS011;23119;51.842;-2.230;2022-09-24T13:30:20;2.92;;;0.13;;
37221;SDS011;23119;51.842;-2.230;2022-09-24T13:35:31;1.05;;;0.10;;
37221;SDS011;23119;51.842;-2.230;2022-09-24T13:38:08;2.80;;;0.20;;
37221;SDS011;23119;51.842;-2.230;2022-09-24T13:40:59;1.15;;;0.10;;
37221;SDS011;23119;51.842;-2.230;2022-09-24T13:44:46;1.92;;;0.20;;
37221;SDS011;23119;51.842;-2.230;2022-09-24T13:46:48;1.58;;;0.20;;
37221;SDS011;23119;51.842;-2.230;2022-09-24T13:49:18;3.33;;;0.10;;
37221;SDS011;23119;51.842;-2.230;2022-09-24T13:51:55;2.67;;;0.10;;
37221;SDS011;23119;51.842;-2.230;2022-09-24T13:54:52;1.35;;;0.15;;
37221;SDS011;23119;51.842;-2.230;2022-09-24T13:57:22;1.17;;;0.20;;
37221;SDS011;23119;51.842;-2.230;2022-09-24T14:00:00;0.60;;;0.10;;
37221;SDS011;23119;51.842;-2.230;2022-09-24T14:05:53;2.42;;;0.20;;
37221;SDS011;23119;51.842;-2.230;2022-09-24T14:08:21;0.95;;;0.10;;
37221;SDS011;23119;51.842;-2.230;2022-09-24T14:10:48;1.02;;;0.13;;
37221;SDS011;23119;51.842;-2.230;2022-09-24T14:13:16;2.53;;;0.68;;
37221;SDS011;23119;51.842;-2.230;2022-09-24T14:15:49;1.25;;;0.10;;
37221;SDS011;23119;51.842;-2.230;2022-09-24T14:18:14;0.77;;;0.10;;
37221;SDS011;23119;51.842;-2.230;2022-09-24T14:20:42;1.23;;;0.17;;
37221;SDS011;23119;51.842;-2.230;2022-09-24T14:23:15;3.22;;;0.20;;
37221;SDS011;23119;51.842;-2.230;2022-09-24T14:25:45;1.73;;;0.20;;
37221;SDS011;23119;51.842;-2.230;2022-09-24T14:28:15;4.65;;;0.63;;
37221;SDS011;23119;51.842;-2.230;2022-09-24T14:30:47;2.03;;;0.17;;
37221;SDS011;23119;51.842;-2.230;2022-09-24T14:33:19;0.88;;;0.20;;
37221;SDS011;23119;51.842;-2.230;2022-09-24T14:35:56;1.95;;;0.10;;
37221;SDS011;23119;51.842;-2.230;2022-09-24T14:38:29;2.83;;;0.20;;
37221;SDS011;23119;51.842;-2.230;2022-09-24T14:41:28;2.50;;;0.10;;
37221;SDS011;23119;51.842;-2.230;2022-09-24T14:44:06;3.03;;;0.20;;
37221;SDS011;23119;51.842;-2.230;2022-09-24T14:49:31;0.45;;;0.10;;
37221;SDS011;23119;51.842;-2.230;2022-09-24T14:52:23;1.00;;;0.13;;
37221;SDS011;23119;51.842;-2.230;2022-09-24T14:55:02;1.85;;;0.10;;
37221;SDS011;23119;51.842;-2.230;2022-09-24T14:57:45;3.10;;;0.20;;
37221;SDS011;23119;51.842;-2.230;2022-09-24T15:03:12;0.70;;;0.10;;
37221;SDS011;23119;51.842;-2.230;2022-09-24T15:05:48;0.57;;;0.10;;
37221;SDS011;23119;51.842;-2.230;2022-09-24T15:10:55;2.22;;;0.10;;
37221;SDS011;23119;51.842;-2.230;2022-09-24T15:13:23;0.65;;;0.10;;
37221;SDS011;23119;51.842;-2.230;2022-09-24T15:16:00;2.30;;;0.30;;
37221;SDS011;23119;51.842;-2.230;2022-09-24T15:18:25;4.18;;;0.40;;
37221;SDS011;23119;51.842;-2.230;2022-09-24T15:20:52;3.42;;;0.20;;
37221;SDS011;23119;51.842;-2.230;2022-09-24T15:23:23;0.77;;;0.20;;
37221;SDS011;23119;51.842;-2.230;2022-09-24T15:25:49;1.42;;;0.10;;
37221;SDS011;23119;51.842;-2.230;2022-09-24T15:28:15;0.88;;;0.10;;
37221;SDS011;23119;51.842;-2.230;2022-09-24T15:30:43;0.70;;;0.10;;
37221;SDS011;23119;51.842;-2.230;2022-09-24T15:33:10;1.65;;;0.10;;
37221;SDS011;23119;51.842;-2.230;2022-09-24T15:35:44;1.00;;;0.10;;
37221;SDS011;23119;51.842;-2.230;2022-09-24T15:38:18;2.33;;;0.20;;
37221;SDS011;23119;51.842;-2.230;2022-09-24T15:40:44;3.35;;;0.40;;
37221;SDS011;23119;51.842;-2.230;2022-09-24T15:43:16;2.90;;;0.17;;
37221;SDS011;23119;51.842;-2.230;2022-09-24T15:45:44;1.27;;;0.10;;
37221;SDS011;23119;51.842;-2.230;2022-09-24T15:48:09;1.95;;;0.30;;
37221;SDS011;23119;51.842;-2.230;2022-09-24T15:50:36;0.82;;;0.20;;
37221;SDS011;23119;51.842;-2.230;2022-09-24T15:53:11;1.25;;;0.22;;
37221;SDS011;23119;51.842;-2.230;2022-09-24T15:55:49;0.85;;;0.20;;
37221;SDS011;23119;51.842;-2.230;2022-09-24T15:58:22;1.02;;;0.17;;
37221;SDS011;23119;51.842;-2.230;2022-09-24T16:00:50;1.75;;;0.22;;
37221;SDS011;23119;51.842;-2.230;2022-09-24T16:03:17;2.92;;;0.22;;
37221;SDS011;23119;51.842;-2.230;2022-09-24T16:05:51;1.55;;;0.20;;
37221;SDS011;23119;51.842;-2.230;2022-09-24T16:08:20;3.83;;;0.28;;
37221;SDS011;23119;51.842;-2.230;2022-09-24T16:10:50;0.63;;;0.10;;
37221;SDS011;23119;51.842;-2.230;2022-09-24T16:13:16;1.67;;;0.20;;
37221;SDS011;23119;51.842;-2.230;2022-09-24T16:15:43;1.25;;;0.17;;
37221;SDS011;23119;51.842;-2.230;2022-09-24T16:18:13;1.38;;;0.10;;
37221;SDS011;23119;51.842;-2.230;2022-09-24T16:20:40;1.50;;;0.20;;
37221;SDS011;23119;51.842;-2.230;2022-09-24T16:23:12;1.45;;;0.15;;
37221;SDS011;23119;51.842;-2.230;2022-09-24T16:26:02;1.42;;;0.20;;
37221;SDS011;23119;51.842;-2.230;2022-09-24T16:28:29;3.45;;;0.20;;
37221;SDS011;23119;51.842;-2.230;2022-09-24T16:31:07;1.50;;;0.10;;
37221;SDS011;23119;51.842;-2.230;2022-09-24T16:33:38;0.55;;;0.10;;
37221;SDS011;23119;51.842;-2.230;2022-09-24T16:36:07;1.30;;;0.20;;
37221;SDS011;23119;51.842;-2.230;2022-09-24T16:38:37;2.00;;;0.20;;
37221;SDS011;23119;51.842;-2.230;2022-09-24T16:41:04;1.85;;;0.20;;
37221;SDS011;23119;51.842;-2.230;2022-09-24T16:43:30;2.42;;;0.20;;
37221;SDS011;23119;51.842;-2.230;2022-09-24T16:46:03;2.30;;;0.20;;
37221;SDS011;23119;51.842;-2.230;2022-09-24T16:48:32;0.50;;;0.10;;
37221;SDS011;23119;51.842;-2.230;2022-09-24T16:53:28;0.60;;;0.10;;
37221;SDS011;23119;51.842;-2.230;2022-09-24T16:58:44;1.33;;;0.10;;
37221;SDS011;23119;51.842;-2.230;2022-09-24T17:01:15;1.92;;;0.13;;
37221;SDS011;23119;51.842;-2.230;2022-09-24T17:03:42;2.53;;;0.77;;
37221;SDS011;23119;51.842;-2.230;2022-09-24T17:06:43;1.55;;;0.20;;
37221;SDS011;23119;51.842;-2.230;2022-09-24T17:09:10;1.50;;;0.20;;
37221;SDS011;23119;51.842;-2.230;2022-09-24T17:11:57;0.73;;;0.20;;
37221;SDS011;23119;51.842;-2.230;2022-09-24T17:14:23;2.58;;;0.10;;
37221;SDS011;23119;51.842;-2.230;2022-09-24T17:16:52;0.60;;;0.10;;
37221;SDS011;23119;51.842;-2.230;2022-09-24T17:19:20;0.60;;;0.20;;
37221;SDS011;23119;51.842;-2.230;2022-09-24T17:21:45;6.07;;;0.30;;